210550Z 00000KT CAVOK M09/M10 Q1035 RWY 14 RIME OR FROST 51-100 PCT FCT 0.37=

210530Z 2106/2115 34002KT CAVOK=

Aktuell METAR/TAF ESNU/UME

Källa: Luftfartsverket (aro.lfv.se)